sensor_id;sensor_type;location;lat;lon;timestamp;pressure;altitude;pressure_sealevel;temperature;humidity
55424;BME280;41294;42.666;23.350;2023-01-27T11:58:27;94082.25;;;2.56;100.00
55424;BME280;41294;42.666;23.350;2023-01-27T12:00:59;94075.75;;;2.80;100.00
55424;BME280;41294;42.666;23.350;2023-01-27T12:03:42;94075.31;;;2.97;100.00
55424;BME280;41294;42.666;23.350;2023-01-27T12:06:14;94069.38;;;2.97;99.85
55424;BME280;41294;42.666;23.350;2023-01-27T12:08:45;94073.66;;;3.03;98.99
55424;BME280;41294;42.666;23.350;2023-01-27T12:11:20;94074.91;;;2.99;98.30
55424;BME280;41294;42.666;23.350;2023-01-27T12:13:51;94075.72;;;2.96;97.67
55424;BME280;41294;42.666;23.350;2023-01-27T12:16:18;94064.81;;;3.01;97.68
55424;BME280;41294;42.666;23.350;2023-01-27T12:18:54;94075.09;;;3.20;97.00
55424;BME280;41294;42.666;23.350;2023-01-27T12:21:34;94078.16;;;3.03;96.89
55424;BME280;41294;42.666;23.350;2023-01-27T12:24:02;94078.25;;;3.12;96.60
55424;BME280;41294;42.666;23.350;2023-01-27T12:26:39;94084.44;;;3.18;96.36
55424;BME280;41294;42.666;23.350;2023-01-27T12:29:14;94079.75;;;3.25;96.04
55424;BME280;41294;42.666;23.350;2023-01-27T12:31:46;94078.84;;;3.31;96.12
55424;BME280;41294;42.666;23.350;2023-01-27T12:36:47;94077.72;;;3.32;95.44
55424;BME280;41294;42.666;23.350;2023-01-27T12:39:44;94076.16;;;3.35;95.80
55424;BME280;41294;42.666;23.350;2023-01-27T12:42:45;94081.97;;;3.26;95.65
55424;BME280;41294;42.666;23.350;2023-01-27T12:45:29;94076.50;;;3.37;96.09
55424;BME280;41294;42.666;23.350;2023-01-27T12:51:03;94076.78;;;3.26;95.93
55424;BME280;41294;42.666;23.350;2023-01-27T12:53:30;94079.97;;;3.46;96.59
55424;BME280;41294;42.666;23.350;2023-01-27T12:56:14;94072.63;;;3.29;96.38
55424;BME280;41294;42.666;23.350;2023-01-27T12:58:59;94074.41;;;3.32;95.74
55424;BME280;41294;42.666;23.350;2023-01-27T13:01:30;94068.59;;;3.40;95.99
55424;BME280;41294;42.666;23.350;2023-01-27T13:04:01;94065.91;;;3.44;96.00
55424;BME280;41294;42.666;23.350;2023-01-27T13:06:40;94064.44;;;3.43;97.03
55424;BME280;41294;42.666;23.350;2023-01-27T13:09:37;94066.97;;;3.46;96.83
55424;BME280;41294;42.666;23.350;2023-01-27T13:12:30;94076.28;;;3.44;95.79
55424;BME280;41294;42.666;23.350;2023-01-27T13:15:18;94075.19;;;3.57;96.28
55424;BME280;41294;42.666;23.350;2023-01-27T13:17:48;94073.41;;;3.42;96.87
55424;BME280;41294;42.666;23.350;2023-01-27T13:20:21;94068.63;;;3.53;96.30
55424;BME280;41294;42.666;23.350;2023-01-27T13:23:00;94067.66;;;3.34;96.89
55424;BME280;41294;42.666;23.350;2023-01-27T13:25:33;94075.50;;;3.19;97.49
55424;BME280;41294;42.666;23.350;2023-01-27T13:28:01;94076.31;;;3.16;96.88
55424;BME280;41294;42.666;23.350;2023-01-27T13:30:33;94078.41;;;3.21;97.88
55424;BME280;41294;42.666;23.350;2023-01-27T13:33:23;94083.44;;;3.27;97.42
55424;BME280;41294;42.666;23.350;2023-01-27T13:35:59;94084.91;;;3.28;98.01
55424;BME280;41294;42.666;23.350;2023-01-27T13:38:56;94079.91;;;3.06;98.91
55424;BME280;41294;42.666;23.350;2023-01-27T13:41:42;94076.59;;;3.05;98.97
55424;BME280;41294;42.666;23.350;2023-01-27T13:44:26;94084.47;;;3.02;99.06
55424;BME280;41294;42.666;23.350;2023-01-27T13:46:59;94085.09;;;3.06;98.51
55424;BME280;41294;42.666;23.350;2023-01-27T13:51:51;94087.09;;;3.02;99.02
55424;BME280;41294;42.666;23.350;2023-01-27T13:54:16;94087.56;;;2.97;98.66
55424;BME280;41294;42.666;23.350;2023-01-27T14:00:02;94092.66;;;3.00;99.84
55424;BME280;41294;42.666;23.350;2023-01-27T14:03:02;94092.44;;;2.95;99.29
55424;BME280;41294;42.666;23.350;2023-01-27T14:14:07;94103.47;;;2.99;98.33
55424;BME280;41294;42.666;23.350;2023-01-27T14:17:01;94115.81;;;2.95;98.27
55424;BME280;41294;42.666;23.350;2023-01-27T14:22:26;94107.41;;;2.91;97.54
55424;BME280;41294;42.666;23.350;2023-01-27T14:27:36;94116.16;;;2.97;97.01
55424;BME280;41294;42.666;23.350;2023-01-27T14:35:47;94119.97;;;2.92;96.95
55424;BME280;41294;42.666;23.350;2023-01-27T14:43:38;94120.06;;;2.89;97.90
55424;BME280;41294;42.666;23.350;2023-01-27T14:51:46;94131.75;;;2.97;98.20
55424;BME280;41294;42.666;23.350;2023-01-27T15:00:27;94132.72;;;2.87;97.15
55424;BME280;41294;42.666;23.350;2023-01-27T15:26:02;94161.22;;;2.58;98.26
55424;BME280;41294;42.666;23.350;2023-01-27T15:28:32;94157.00;;;2.96;100.00
55424;BME280;41294;42.666;23.350;2023-01-27T15:31:07;94165.94;;;2.79;98.62
55424;BME280;41294;42.666;23.350;2023-01-27T15:36:35;94169.44;;;2.73;98.96
55424;BME280;41294;42.666;23.350;2023-01-27T15:39:16;94170.16;;;2.73;98.66
55424;BME280;41294;42.666;23.350;2023-01-27T15:44:32;94174.88;;;2.62;98.53
55424;BME280;41294;42.666;23.350;2023-01-27T15:49:37;94173.06;;;2.59;98.74
55424;BME280;41294;42.666;23.350;2023-01-27T15:57:52;94185.25;;;2.62;98.70
55424;BME280;41294;42.666;23.350;2023-01-27T16:00:49;94191.34;;;2.56;98.44
55424;BME280;41294;42.666;23.350;2023-01-27T16:03:22;94189.47;;;2.56;98.88
55424;BME280;41294;42.666;23.350;2023-01-27T16:05:51;94189.78;;;2.42;99.03
55424;BME280;41294;42.666;23.350;2023-01-27T16:08:21;94200.88;;;2.43;99.26
55424;BME280;41294;42.666;23.350;2023-01-27T16:10:48;94198.53;;;2.48;99.63
55424;BME280;41294;42.666;23.350;2023-01-27T16:13:20;94201.47;;;2.50;99.40
55424;BME280;41294;42.666;23.350;2023-01-27T16:15:46;94203.19;;;2.57;98.64
55424;BME280;41294;42.666;23.350;2023-01-27T16:20:54;94206.91;;;2.56;98.66
55424;BME280;41294;42.666;23.350;2023-01-27T16:23:54;94217.22;;;2.59;98.58
55424;BME280;41294;42.666;23.350;2023-01-27T16:26:30;94212.75;;;2.60;98.50
55424;BME280;41294;42.666;23.350;2023-01-27T16:32:00;94213.22;;;2.39;99.03
55424;BME280;41294;42.666;23.350;2023-01-27T16:34:54;94217.88;;;2.28;98.88
55424;BME280;41294;42.666;23.350;2023-01-27T16:37:31;94218.75;;;2.22;100.00
55424;BME280;41294;42.666;23.350;2023-01-27T16:40:19;94221.69;;;2.24;100.00
55424;BME280;41294;42.666;23.350;2023-01-27T16:45:21;94213.22;;;2.39;98.92
55424;BME280;41294;42.666;23.350;2023-01-27T16:50:36;94222.31;;;2.47;98.72
55424;BME280;41294;42.666;23.350;2023-01-27T16:53:04;94218.75;;;2.41;98.47
55424;BME280;41294;42.666;23.350;2023-01-27T16:55:31;94217.53;;;2.45;98.32
55424;BME280;41294;42.666;23.350;2023-01-27T16:57:58;94225.19;;;2.33;98.95
55424;BME280;41294;42.666;23.350;2023-01-27T17:00:31;94221.00;;;2.39;98.59
55424;BME280;41294;42.666;23.350;2023-01-27T17:03:03;94226.53;;;2.41;98.80
55424;BME280;41294;42.666;23.350;2023-01-27T17:05:32;94232.97;;;2.33;98.65
55424;BME280;41294;42.666;23.350;2023-01-27T17:10:49;94229.66;;;2.33;98.64
55424;BME280;41294;42.666;23.350;2023-01-27T17:13:35;94231.72;;;2.41;98.66
55424;BME280;41294;42.666;23.350;2023-01-27T17:16:11;94230.91;;;2.44;98.52
55424;BME280;41294;42.666;23.350;2023-01-27T17:18:39;94236.78;;;2.48;97.97
55424;BME280;41294;42.666;23.350;2023-01-27T17:21:04;94239.03;;;2.46;98.59
55424;BME280;41294;42.666;23.350;2023-01-27T17:23:35;94241.88;;;2.51;98.07
55424;BME280;41294;42.666;23.350;2023-01-27T17:26:10;94241.78;;;2.39;97.97
55424;BME280;41294;42.666;23.350;2023-01-27T17:28:37;94231.56;;;2.48;97.97
55424;BME280;41294;42.666;23.350;2023-01-27T17:31:04;94247.00;;;2.55;97.42
55424;BME280;41294;42.666;23.350;2023-01-27T17:33:31;94245.63;;;2.50;97.51
55424;BME280;41294;42.666;23.350;2023-01-27T17:36:10;94247.66;;;2.59;97.25
55424;BME280;41294;42.666;23.350;2023-01-27T17:38:48;94253.50;;;2.63;97.21
55424;BME280;41294;42.666;23.350;2023-01-27T17:41:35;94257.88;;;2.50;97.01
55424;BME280;41294;42.666;23.350;2023-01-27T17:44:04;94260.97;;;2.61;97.32
55424;BME280;41294;42.666;23.350;2023-01-27T17:46:34;94261.59;;;2.49;97.11
55424;BME280;41294;42.666;23.350;2023-01-27T17:49:11;94266.97;;;2.58;97.18
55424;BME280;41294;42.666;23.350;2023-01-27T17:54:38;94277.63;;;2.44;97.21
55424;BME280;41294;42.666;23.350;2023-01-27T17:57:25;94278.03;;;2.62;96.61
55424;BME280;41294;42.666;23.350;2023-01-27T18:00:02;94269.31;;;2.52;97.12
55424;BME280;41294;42.666;23.350;2023-01-27T18:02:33;94278.09;;;2.58;95.93
55424;BME280;41294;42.666;23.350;2023-01-27T18:05:04;94278.81;;;2.59;96.13
55424;BME280;41294;42.666;23.350;2023-01-27T18:07:30;94278.50;;;2.57;96.43
55424;BME280;41294;42.666;23.350;2023-01-27T18:09:56;94279.97;;;2.58;96.68
55424;BME280;41294;42.666;23.350;2023-01-27T18:12:35;94286.34;;;2.73;96.09
55424;BME280;41294;42.666;23.350;2023-01-27T18:15:36;94286.47;;;2.66;96.03
55424;BME280;41294;42.666;23.350;2023-01-27T18:18:05;94291.81;;;2.59;96.38
55424;BME280;41294;42.666;23.350;2023-01-27T18:20:35;94287.44;;;2.56;97.21
55424;BME280;41294;42.666;23.350;2023-01-27T18:23:08;94284.16;;;2.52;96.77
55424;BME280;41294;42.666;23.350;2023-01-27T18:25:38;94283.97;;;2.62;96.51
55424;BME280;41294;42.666;23.350;2023-01-27T18:28:03;94292.72;;;2.68;96.71
55424;BME280;41294;42.666;23.350;2023-01-27T18:30:29;94289.19;;;2.59;96.79
55424;BME280;41294;42.666;23.350;2023-01-27T18:33:16;94295.94;;;2.56;96.13
55424;BME280;41294;42.666;23.350;2023-01-27T18:35:43;94290.28;;;2.61;96.19
55424;BME280;41294;42.666;23.350;2023-01-27T18:38:24;94294.81;;;2.57;95.48
55424;BME280;41294;42.666;23.350;2023-01-27T18:40:51;94290.75;;;2.56;96.13
55424;BME280;41294;42.666;23.350;2023-01-27T18:43:16;94286.22;;;2.60;96.01
55424;BME280;41294;42.666;23.350;2023-01-27T18:45:42;94293.91;;;2.48;96.53
55424;BME280;41294;42.666;23.350;2023-01-27T18:48:14;94291.75;;;2.43;96.94
55424;BME280;41294;42.666;23.350;2023-01-27T18:50:42;94296.94;;;2.43;96.83
55424;BME280;41294;42.666;23.350;2023-01-27T18:53:15;94299.28;;;2.38;97.07
55424;BME280;41294;42.666;23.350;2023-01-27T18:55:41;94297.44;;;2.38;97.04
55424;BME280;41294;42.666;23.350;2023-01-27T18:58:06;94300.75;;;2.39;97.09
55424;BME280;41294;42.666;23.350;2023-01-27T19:00:49;94302.88;;;2.43;96.72
55424;BME280;41294;42.666;23.350;2023-01-27T19:03:26;94304.94;;;2.52;96.97
55424;BME280;41294;42.666;23.350;2023-01-27T19:05:53;94296.16;;;2.46;96.93
55424;BME280;41294;42.666;23.350;2023-01-27T19:08:21;94307.72;;;2.61;96.86
55424;BME280;41294;42.666;23.350;2023-01-27T19:10:48;94305.06;;;2.45;96.99
55424;BME280;41294;42.666;23.350;2023-01-27T19:13:14;94304.53;;;2.53;97.09
55424;BME280;41294;42.666;23.350;2023-01-27T19:15:52;94311.75;;;2.46;97.17
55424;BME280;41294;42.666;23.350;2023-01-27T19:18:33;94317.72;;;2.62;96.73
55424;BME280;41294;42.666;23.350;2023-01-27T19:21:00;94308.13;;;2.59;97.12
55424;BME280;41294;42.666;23.350;2023-01-27T19:23:26;94310.34;;;2.42;97.48
55424;BME280;41294;42.666;23.350;2023-01-27T19:25:55;94302.88;;;2.43;97.93
55424;BME280;41294;42.666;23.350;2023-01-27T19:28:48;94307.81;;;2.38;97.48
55424;BME280;41294;42.666;23.350;2023-01-27T19:31:15;94314.13;;;2.37;97.56
55424;BME280;41294;42.666;23.350;2023-01-27T19:33:41;94303.75;;;2.37;98.04
55424;BME280;41294;42.666;23.350;2023-01-27T19:36:30;94315.53;;;2.42;97.43
55424;BME280;41294;42.666;23.350;2023-01-27T19:39:00;94323.06;;;2.36;97.65
55424;BME280;41294;42.666;23.350;2023-01-27T19:41:33;94321.44;;;2.42;98.22
55424;BME280;41294;42.666;23.350;2023-01-27T19:43:59;94319.66;;;2.39;98.16
55424;BME280;41294;42.666;23.350;2023-01-27T19:46:25;94320.78;;;2.38;98.08
55424;BME280;41294;42.666;23.350;2023-01-27T19:48:53;94324.59;;;2.34;98.51
55424;BME280;41294;42.666;23.350;2023-01-27T19:51:19;94318.28;;;2.35;98.00
55424;BME280;41294;42.666;23.350;2023-01-27T19:53:45;94320.78;;;2.38;98.49
55424;BME280;41294;42.666;23.350;2023-01-27T19:56:16;94327.72;;;2.44;97.75
55424;BME280;41294;42.666;23.350;2023-01-27T19:58:43;94330.31;;;2.44;98.57
55424;BME280;41294;42.666;23.350;2023-01-27T20:01:11;94329.72;;;2.37;99.16
55424;BME280;41294;42.666;23.350;2023-01-27T20:03:38;94329.13;;;2.49;99.35
55424;BME280;41294;42.666;23.350;2023-01-27T20:06:30;94333.63;;;2.26;100.00
55424;BME280;41294;42.666;23.350;2023-01-27T20:08:57;94328.38;;;2.29;100.00
55424;BME280;41294;42.666;23.350;2023-01-27T20:11:42;94326.19;;;2.28;100.00
55424;BME280;41294;42.666;23.350;2023-01-27T20:14:14;94326.84;;;2.32;100.00
55424;BME280;41294;42.666;23.350;2023-01-27T20:16:40;94328.78;;;2.28;100.00
55424;BME280;41294;42.666;23.350;2023-01-27T20:19:06;94323.25;;;2.26;100.00
55424;BME280;41294;42.666;23.350;2023-01-27T20:21:32;94325.72;;;2.33;100.00
55424;BME280;41294;42.666;23.350;2023-01-27T20:24:00;94327.59;;;2.32;100.00
55424;BME280;41294;42.666;23.350;2023-01-27T20:26:27;94329.91;;;2.27;100.00
55424;BME280;41294;42.666;23.350;2023-01-27T20:28:54;94332.09;;;2.28;100.00
55424;BME280;41294;42.666;23.350;2023-01-27T20:31:20;94334.69;;;2.28;100.00
55424;BME280;41294;42.666;23.350;2023-01-27T20:33:48;94333.94;;;2.08;100.00
55424;BME280;41294;42.666;23.350;2023-01-27T20:36:16;94339.63;;;2.23;100.00
55424;BME280;41294;42.666;23.350;2023-01-27T20:38:43;94337.28;;;2.28;100.00
55424;BME280;41294;42.666;23.350;2023-01-27T20:41:10;94337.56;;;2.14;100.00
55424;BME280;41294;42.666;23.350;2023-01-27T20:43:36;94347.88;;;2.18;100.00
55424;BME280;41294;42.666;23.350;2023-01-27T20:46:07;94342.06;;;2.10;100.00
55424;BME280;41294;42.666;23.350;2023-01-27T20:48:33;94342.16;;;2.26;100.00
55424;BME280;41294;42.666;23.350;2023-01-27T20:51:04;94344.19;;;2.15;100.00
55424;BME280;41294;42.666;23.350;2023-01-27T20:53:32;94353.22;;;2.07;100.00
55424;BME280;41294;42.666;23.350;2023-01-27T20:55:59;94349.00;;;2.17;100.00
55424;BME280;41294;42.666;23.350;2023-01-27T20:58:25;94344.94;;;2.16;100.00
55424;BME280;41294;42.666;23.350;2023-01-27T21:00:52;94354.78;;;2.24;100.00
55424;BME280;41294;42.666;23.350;2023-01-27T21:03:19;94355.38;;;2.12;100.00
55424;BME280;41294;42.666;23.350;2023-01-27T21:05:46;94356.50;;;2.11;100.00
55424;BME280;41294;42.666;23.350;2023-01-27T21:08:12;94350.84;;;2.16;100.00
55424;BME280;41294;42.666;23.350;2023-01-27T21:10:38;94362.97;;;2.23;100.00
55424;BME280;41294;42.666;23.350;2023-01-27T21:13:04;94357.69;;;2.07;100.00
55424;BME280;41294;42.666;23.350;2023-01-27T21:15:29;94358.34;;;2.11;100.00
55424;BME280;41294;42.666;23.350;2023-01-27T21:17:55;94363.03;;;2.19;100.00
55424;BME280;41294;42.666;23.350;2023-01-27T21:20:20;94367.75;;;2.24;100.00
55424;BME280;41294;42.666;23.350;2023-01-27T21:22:46;94371.50;;;2.23;100.00
55424;BME280;41294;42.666;23.350;2023-01-27T21:25:11;94362.63;;;2.21;100.00
55424;BME280;41294;42.666;23.350;2023-01-27T21:27:37;94365.84;;;2.28;100.00
55424;BME280;41294;42.666;23.350;2023-01-27T21:30:02;94369.44;;;2.34;100.00
55424;BME280;41294;42.666;23.350;2023-01-27T21:32:28;94363.53;;;2.53;100.00
55424;BME280;41294;42.666;23.350;2023-01-27T21:34:53;94379.88;;;2.53;99.78
55424;BME280;41294;42.666;23.350;2023-01-27T21:37:21;94372.59;;;2.45;99.07
55424;BME280;41294;42.666;23.350;2023-01-27T21:39:46;94374.47;;;2.44;98.69
55424;BME280;41294;42.666;23.350;2023-01-27T21:42:14;94379.38;;;2.39;98.26
55424;BME280;41294;42.666;23.350;2023-01-27T21:44:58;94382.03;;;2.36;98.63
55424;BME280;41294;42.666;23.350;2023-01-27T21:47:37;94388.56;;;2.01;99.68
55424;BME280;41294;42.666;23.350;2023-01-27T21:50:03;94393.66;;;1.85;100.00
55424;BME280;41294;42.666;23.350;2023-01-27T21:52:34;94389.34;;;1.75;100.00
55424;BME280;41294;42.666;23.350;2023-01-27T21:55:03;94395.47;;;1.62;100.00
55424;BME280;41294;42.666;23.350;2023-01-27T21:57:30;94390.34;;;1.59;100.00
55424;BME280;41294;42.666;23.350;2023-01-27T21:59:56;94399.59;;;1.60;100.00
55424;BME280;41294;42.666;23.350;2023-01-27T22:02:21;94391.06;;;1.59;100.00
55424;BME280;41294;42.666;23.350;2023-01-27T22:04:47;94387.25;;;2.13;100.00
55424;BME280;41294;42.666;23.350;2023-01-27T22:07:14;94392.06;;;2.76;100.00
55424;BME280;41294;42.666;23.350;2023-01-27T22:09:40;94387.59;;;2.57;100.00
55424;BME280;41294;42.666;23.350;2023-01-27T22:12:07;94392.28;;;2.00;99.79
55424;BME280;41294;42.666;23.350;2023-01-27T22:14:33;94394.31;;;1.89;100.00
55424;BME280;41294;42.666;23.350;2023-01-27T22:16:59;94393.19;;;1.67;100.00
55424;BME280;41294;42.666;23.350;2023-01-27T22:19:24;94392.94;;;1.59;100.00
55424;BME280;41294;42.666;23.350;2023-01-27T22:21:50;94399.03;;;1.71;100.00
55424;BME280;41294;42.666;23.350;2023-01-27T22:24:15;94397.03;;;2.05;100.00
55424;BME280;41294;42.666;23.350;2023-01-27T22:26:41;94382.16;;;2.29;99.61
55424;BME280;41294;42.666;23.350;2023-01-27T22:29:07;94388.16;;;2.26;99.19
55424;BME280;41294;42.666;23.350;2023-01-27T22:31:36;94394.88;;;2.23;98.54
55424;BME280;41294;42.666;23.350;2023-01-27T22:34:08;94396.59;;;2.30;98.26
55424;BME280;41294;42.666;23.350;2023-01-27T22:36:34;94394.41;;;2.28;97.73
55424;BME280;41294;42.666;23.350;2023-01-27T22:38:59;94395.88;;;2.29;97.63
55424;BME280;41294;42.666;23.350;2023-01-27T22:41:25;94399.47;;;2.35;97.29
55424;BME280;41294;42.666;23.350;2023-01-27T22:43:51;94408.78;;;2.33;97.39
55424;BME280;41294;42.666;23.350;2023-01-27T22:46:17;94411.44;;;2.29;96.98
55424;BME280;41294;42.666;23.350;2023-01-27T22:48:45;94406.06;;;2.40;96.70
55424;BME280;41294;42.666;23.350;2023-01-27T22:51:15;94410.53;;;2.39;96.88
55424;BME280;41294;42.666;23.350;2023-01-27T22:53:43;94402.53;;;2.30;97.28
55424;BME280;41294;42.666;23.350;2023-01-27T22:56:10;94411.44;;;2.29;97.62
55424;BME280;41294;42.666;23.350;2023-01-27T22:58:35;94414.41;;;2.31;97.58
55424;BME280;41294;42.666;23.350;2023-01-27T23:01:04;94404.16;;;2.43;97.04
55424;BME280;41294;42.666;23.350;2023-01-27T23:03:30;94405.78;;;2.34;96.90
55424;BME280;41294;42.666;23.350;2023-01-27T23:05:55;94409.78;;;2.39;97.63
55424;BME280;41294;42.666;23.350;2023-01-27T23:08:21;94409.69;;;2.23;97.98
55424;BME280;41294;42.666;23.350;2023-01-27T23:10:47;94399.41;;;2.39;96.96
55424;BME280;41294;42.666;23.350;2023-01-27T23:13:13;94397.91;;;2.41;97.03
55424;BME280;41294;42.666;23.350;2023-01-27T23:15:39;94395.75;;;2.36;97.04
55424;BME280;41294;42.666;23.350;2023-01-27T23:18:04;94401.19;;;2.22;97.21
55424;BME280;41294;42.666;23.350;2023-01-27T23:20:40;94402.66;;;2.23;97.17
55424;BME280;41294;42.666;23.350;2023-01-27T23:23:07;94395.19;;;2.25;97.47
55424;BME280;41294;42.666;23.350;2023-01-27T23:25:34;94391.47;;;2.26;97.01
55424;BME280;41294;42.666;23.350;2023-01-27T23:28:00;94392.28;;;2.23;97.62
55424;BME280;41294;42.666;23.350;2023-01-27T23:30:26;94391.47;;;2.26;97.53
55424;BME280;41294;42.666;23.350;2023-01-27T23:32:53;94390.47;;;2.20;97.81
55424;BME280;41294;42.666;23.350;2023-01-27T23:35:19;94393.84;;;2.17;97.73
55424;BME280;41294;42.666;23.350;2023-01-27T23:37:45;94402.75;;;2.16;97.58
55424;BME280;41294;42.666;23.350;2023-01-27T23:40:11;94403.88;;;2.15;97.33
55424;BME280;41294;42.666;23.350;2023-01-27T23:42:37;94392.94;;;2.27;97.53
55424;BME280;41294;42.666;23.350;2023-01-27T23:45:06;94395.19;;;2.25;97.06
55424;BME280;41294;42.666;23.350;2023-01-27T23:47:32;94409.34;;;2.21;96.81
55424;BME280;41294;42.666;23.350;2023-01-27T23:49:57;94404.09;;;2.24;96.79
55424;BME280;41294;42.666;23.350;2023-01-27T23:52:23;94393.00;;;2.24;96.56
55424;BME280;41294;42.666;23.350;2023-01-27T23:54:48;94406.38;;;2.22;96.29
55424;BME280;41294;42.666;23.350;2023-01-27T23:57:14;94411.94;;;2.21;96.54
55424;BME280;41294;42.666;23.350;2023-01-27T23:59:39;94402.75;;;2.16;96.66
